Tiempo atmosférico en la estación meteorológica de Fraga, Huesca (170 m.)



Fecha
DESCASC
Temp. máxima en grados centígrados (hora)
DESCASC
Temp. mínima en grados centígrados (hora)
DESCASC
Temp. media en grados centígrados
DESCASC
Racha de viento máxima en m/sg (hora)
DESCASC
Velocidad máxima media en intervalos de 10 minutos(hora)
DESCASC
Precipitaciones diarias en mm
DESCASC
Precipitaciones de 00:00 a 06:00 en mm
DESCASC
Precipitaciones de 06:00 a 12:00 en mm
DESCASC
Precipitaciones de 12:00 a 18:00 en mm
DESCASC
Precipitaciones de 18:00 a 24:00 en mm
DESCASC
18-01-2018 13.4 (16:40) 0.7 (08:40) 7 4.72 (00:20) 3.06 (02:10) 0 0 0 0 0
17-01-2018 14.5 (14:20) 7.3 (23:59) 10.9 24.17 (09:40) 17.78 (09:40) 0 0 0 0 0
16-01-2018 16.9 (15:40) 4.7 (00:00) 10.8 19.17 (15:50) 13.61 (16:40) 0 0 0 0 0
15-01-2018 9.4 (15:20) 0.2 (08:10) 4.8 4.17 (12:40) 2.5 (12:50) 0 0 0 0 0
14-01-2018 9.1 (13:40) 4.8 (00:00) 7 10 (14:30) 7.22 (14:20) 0.2 0 0 0.2 0
13-01-2018 8.6 (17:00) -1.6 (-00:0) 3.5 3.89 (14:50) 2.5 (20:00) 1 0 0 0 1
12-01-2018 10.4 (15:30) -0.2 (00:00) 5.1 7.22 (01:30) 4.44 (01:30) 0 0 0 0 0
11-01-2018 11.1 (15:20) 5.3 (00:00) 8.2 17.22 (12:40) 11.11 (14:10) 0 0 0 0 0
10-01-2018 10.3 (16:10) -0.4 (00:00) 5 9.17 (23:50) 6.11 (23:50) 0.2 0 0.2 0 0
09-01-2018 3.5 (15:30) -2 (-00:0) 0.8 2.78 (21:20) 1.94 (20:20) 0.2 0 0.2 0 0
08-01-2018 6.7 (15:30) 2.2 (00:00) 4.4 7.22 (16:20) 5 (16:20) 0 0 0 0 0
07-01-2018 8.4 (14:00) 4 (00:00) 6.2 5.83 (01:40) 3.61 (01:40) 8 6.4 1.6 0 0
06-01-2018 12.7 (16:50) 4.5 (00:00) 8.6 16.11 (20:50) 10 (20:50) 14.6 0 0 0.2 14.4
05-01-2018 18.7 (16:20) 6.4 (00:00) 12.6 11.11 (12:40) 8.06 (12:40) 0 0 0 0 0
04-01-2018 20.3 (15:20) 14.4 (23:30) 17.3 21.11 (02:50) 14.17 (02:50) 0 0 0 0 0
03-01-2018 21.1 (14:30) 12.5 (00:00) 16.8 17.78 (02:30) 11.67 (15:20) 0 0 0 0 0
02-01-2018 18.1 (15:10) 10.6 (00:00) 14.4 16.67 (21:40) 10.56 (02:00) 0 0 0 0 0
01-01-2018 15.2 (16:30) 6.1 (00:00) 10.6 16.94 (00:20) 10.83 (06:20) 0 0 0 0 0
31-12-2017 11.3 (00:00) 2.9 (00:00) 7.1 17.22 (23:40) 11.11 (23:50) 0 0 0 0 0
30-12-2017 19.6 (15:20) 6.8 (00:00) 13.2 11.39 (13:20) 8.06 (15:40) 0 0 0 0 0
29-12-2017 15.7 (15:40) 8.3 (00:00) 12 16.11 (00:10) 10.28 (00:20) 0 0 0 0 0
28-12-2017 11 (21:00) 5.4 (00:00) 8.2 14.72 (20:50) 9.72 (21:00) 1 0 0 1 0
27-12-2017 11.6 (13:00) 2.8 (00:00) 7.2 22.78 (13:10) 15.28 (13:30) 5.4 5.2 0 0.2 0
26-12-2017 5.7 (16:20) 1.9 (00:00) 3.8 4.44 (09:40) 2.78 (09:30) 0.2 0.2 0 0 0
25-12-2017 3.4 (15:50) 1.3 (00:00) 2.4 3.06 (04:30) 2.5 (04:40) 0.4 0.2 0.2 0 0
24-12-2017 3 (15:10) 1.9 (00:00) 2.4 2.5 (01:20) 1.67 (01:20) 0.4 0 0.2 0 0.2
23-12-2017 3.6 (17:20) 0.1 (00:00) 1.8 3.33 (14:30) 1.94 (14:30) 0.2 0 0.2 0 0
22-12-2017 3.2 (17:00) -1 (-00:0) 1.1 2.5 (17:40) 1.67 (17:40) 0.2 0 0 0 0.2

Gráficas

Temp. máximas Temp. mínimas Temp. medias Precipitaciones Rachas de viento máximas Velocidades máximas media en intervalos de 10 minutos

Datos horarios

Fecha y hora oficial Temperatura (ºC) Velocidad del viento (km/h) Dirección del viento Racha (km/h) Dirección de racha Precipitación (mm) Presión (hPa) Tendencia (hPa) Humedad (%)
2018-01-20 23:00:00 15.5 46 Oeste 72 Oeste 0 -- -- 62
2018-01-20 22:00:00 15.4 39 Oeste 63 Noroeste 0 -- -- 62
2018-01-20 21:00:00 15.2 38 Oeste 63 Oeste 0 -- -- 61
2018-01-20 20:00:00 15.1 40 Oeste 68 Oeste 0 -- -- 60
2018-01-20 19:00:00 15.3 40 Oeste 71 Oeste 0 -- -- 57
2018-01-20 18:00:00 15.4 33 Oeste 54 Oeste 0 -- -- 52
2018-01-20 17:00:00 16.7 31 Oeste 59 Oeste 0 -- -- 45
2018-01-20 16:00:00 17 32 Oeste 54 Oeste 0 -- -- 40
2018-01-20 15:00:00 15.8 40 Oeste 58 Oeste 0 -- -- 43
2018-01-20 14:00:00 15.5 30 Oeste 43 Oeste 0 -- -- 43
2018-01-20 13:00:00 14.3 22 Oeste 35 Oeste 0 -- -- 49
2018-01-20 12:00:00 12.6 20 Oeste 31 Oeste 0 -- -- 57
2018-01-20 11:00:00 10.9 14 Oeste 27 Oeste 0 -- -- 64
2018-01-20 10:00:00 9.1 10 Oeste 27 Oeste 0 -- -- 74
2018-01-20 09:00:00 7.7 15 Oeste 27 Sudoeste 0 -- -- 76
2018-01-20 08:00:00 7.1 9 Sudoeste 15 Sudoeste 0 -- -- 76
2018-01-20 07:00:00 7.6 5 Sudoeste 10 Sudoeste 0 -- -- 73
2018-01-20 06:00:00 8.1 5 Sur 10 Oeste 0 -- -- 71
2018-01-20 05:00:00 8 5 Oeste 18 Oeste 0 -- -- 73
2018-01-20 04:00:00 8.5 8 Noroeste 26 Oeste 0 -- -- 70
2018-01-20 03:00:00 8.9 14 Noroeste 33 Noroeste 0 -- -- 69
2018-01-20 02:00:00 8.9 14 Noroeste 29 Oeste 0 -- -- 69
2018-01-20 01:00:00 9.2 17 Noroeste 32 Oeste 0 -- -- 70
2018-01-20 00:00:00 9 6 Oeste 28 Noroeste 0 -- -- 68
2018-01-19 23:00:00 9.6 14 Oeste 37 Oeste 0 -- -- 65
2018-01-19 22:00:00 10.5 23 Noroeste 41 Oeste 0 -- -- 60
2018-01-19 21:00:00 11 24 Oeste 46 Noroeste 0 -- -- 57
2018-01-19 20:00:00 12.2 31 Noroeste 54 Noroeste 0 -- -- 55
2018-01-19 19:00:00 12.9 22 Oeste 49 Noroeste 0 -- -- 58
2018-01-19 18:00:00 14.3 17 Noroeste 34 Noroeste 0 -- -- 53
2018-01-19 17:00:00 15.7 14 Noroeste 24 Oeste 0 -- -- 50
2018-01-19 16:00:00 14.6 11 Noroeste 18 Noroeste 0 -- -- 56
2018-01-19 15:00:00 15.5 6 Oeste 14 Noroeste 0 -- -- 54
2018-01-19 14:00:00 13 0 Calma 8 Este 0 -- -- 66
2018-01-19 13:00:00 10.5 2 Noroeste 7 Sudoeste 0 -- -- 72
2018-01-19 12:00:00 7.5 4 Sur 7 Sur 0 -- -- 81
2018-01-19 11:00:00 3.6 0 Calma 5 Sudoeste 0 -- -- 93
2018-01-19 10:00:00 1.7 3 Sur 9 Sur 0 -- -- 95
2018-01-19 09:00:00 1.2 2 Sur 5 Sur 0 -- -- 93
2018-01-19 08:00:00 1.8 2 Noroeste 4 Noroeste 0 -- -- 89
2018-01-19 07:00:00 4.5 2 Noroeste 6 Oeste 0 -- -- 89
2018-01-19 06:00:00 4.8 6 Sudoeste 14 Sudoeste 0 -- -- 89
2018-01-19 05:00:00 2.5 3 Sudeste 5 Oeste 0 -- -- 95
2018-01-19 04:00:00 2 0 Calma 12 Sudeste 0 -- -- 90
2018-01-19 03:00:00 3 0 Calma 5 Nordeste 0 -- -- 91
2018-01-19 02:00:00 3.2 0 Calma 4 Nordeste 0 -- -- 91
2018-01-19 01:00:00 3.4 0 Calma 5 Sudoeste 0 -- -- 90
2018-01-19 00:00:00 3.8 2 Oeste 6 Noroeste 0 -- -- 88
2018-01-18 23:00:00 5.3 2 Oeste 5 Norte 0 -- -- 80
2018-01-18 22:00:00 6.8 0 Calma 5 Sudeste 0 -- -- 76
2018-01-18 21:00:00 7.7 2 Este 4 Sur 0 -- -- 73
2018-01-18 20:00:00 8.6 2 Sur 6 Sudeste 0 -- -- 69
2018-01-18 19:00:00 9.5 5 Este 8 Este 0 -- -- 66
2018-01-18 18:00:00 10.7 5 Sudeste 7 Sudeste 0 -- -- 62
2018-01-18 17:00:00 13.2 0 Calma 6 Este 0 -- -- 55
2018-01-18 16:00:00 12.5 4 Nordeste 10 Noroeste 0 -- -- 57
2018-01-18 15:00:00 11.6 3 Nordeste 10 Noroeste 0 -- -- 59
2018-01-18 14:00:00 10.8 4 Noroeste 9 Norte 0 -- -- 61
2018-01-18 13:00:00 10 3 Sur 9 Oeste 0 -- -- 66
2018-01-18 12:00:00 7.2 3 Oeste 5 Oeste 0 -- -- 75
2018-01-18 11:00:00 5.5 0 Calma 6 Sur 0 -- -- 82
2018-01-18 10:00:00 3.4 2 Sur 6 Sudoeste 0 -- -- 91
2018-01-18 09:00:00 0.9 0 Calma 2 Nordeste 0 -- -- 93
2018-01-18 08:00:00 1.1 2 Oeste 6 Sur 0 -- -- 91
2018-01-18 07:00:00 2 4 Norte 11 Norte 0 -- -- 90
2018-01-18 06:00:00 2.9 3 Norte 7 Norte 0 -- -- 88
2018-01-18 05:00:00 3.8 3 Norte 7 Oeste 0 -- -- 86
2018-01-18 04:00:00 5.3 7 Oeste 16 Sudoeste 0 -- -- 84
2018-01-18 03:00:00 5.8 7 Sudoeste 16 Sudoeste 0 -- -- 83
2018-01-18 02:00:00 6.4 9 Sudoeste 15 Sudoeste 0 -- -- 80
2018-01-18 01:00:00 7 4 Norte 17 Sudoeste 0 -- -- 77
2018-01-18 00:00:00 7.3 7 Oeste 19 Sudoeste 0 -- -- 74
2018-01-17 23:00:00 8.1 6 Sudoeste 29 Oeste 0 -- -- 69
2018-01-17 22:00:00 8.7 17 Sudoeste 28 Sudoeste 0 -- -- 67
2018-01-17 21:00:00 9.3 11 Sudoeste 36 Oeste 0 -- -- 67
2018-01-17 20:00:00 10.3 21 Oeste 37 Oeste 0 -- -- 63
2018-01-17 19:00:00 10.9 19 Oeste 50 Oeste 0 -- -- 60
2018-01-17 18:00:00 11.9 24 Oeste 50 Oeste 0 -- -- 55
2018-01-17 17:00:00 13.4 26 Oeste 53 Oeste 0 -- -- 50
2018-01-17 16:00:00 14.3 34 Oeste 74 Oeste 0 -- -- 45
2018-01-17 15:00:00 14.2 49 Oeste 75 Oeste 0 -- -- 42
2018-01-17 14:00:00 14.3 43 Oeste 75 Oeste 0 -- -- 43
2018-01-17 13:00:00 14 48 Noroeste 80 Oeste 0 -- -- 49
2018-01-17 12:00:00 14 52 Oeste 83 Oeste 0 -- -- 49
2018-01-17 11:00:00 13.3 48 Oeste 77 Oeste 0 -- -- 52
2018-01-17 10:00:00 12.5 57 Oeste 87 Oeste 0 -- -- 59
2018-01-17 09:00:00 12.4 54 Oeste 79 Oeste 0 -- -- 57
2018-01-17 08:00:00 11.3 37 Oeste 71 Sudoeste 0 -- -- 69
2018-01-17 07:00:00 12.4 49 Oeste 73 Oeste 0 -- -- 65
2018-01-17 06:00:00 13.3 41 Oeste 63 Oeste 0 -- -- 65
2018-01-17 05:00:00 12.5 35 Oeste 49 Oeste 0 -- -- 69
2018-01-17 04:00:00 11.7 27 Oeste 42 Sudoeste 0 -- -- 70
2018-01-17 03:00:00 11.2 23 Oeste 42 Oeste 0 -- -- 72
2018-01-17 02:00:00 11.8 27 Oeste 44 Oeste 0 -- -- 70
2018-01-17 01:00:00 12.2 28 Oeste 53 Oeste 0 -- -- 70
2018-01-17 00:00:00 12.7 35 Oeste 54 Oeste 0 -- -- 70
2018-01-16 23:00:00 12.4 28 Oeste 46 Oeste 0 -- -- 71
2018-01-16 22:00:00 12.2 25 Oeste 44 Sudoeste 0 -- -- 71
2018-01-16 21:00:00 12.1 16 Oeste 38 Oeste 0 -- -- 70
2018-01-16 20:00:00 13.3 30 Oeste 50 Oeste 0 -- -- 64
2018-01-16 19:00:00 14.6 31 Oeste 62 Oeste 0 -- -- 59
2018-01-16 18:00:00 15.2 42 Oeste 63 Oeste 0 -- -- 58
2018-01-16 17:00:00 16.3 45 Oeste 68 Oeste 0 -- -- 55
2018-01-16 16:00:00 16.7 46 Oeste 69 Oeste 0 -- -- 54
2018-01-16 15:00:00 16.3 38 Oeste 66 Oeste 0 -- -- 54
2018-01-16 14:00:00 15.7 42 Oeste 63 Oeste 0 -- -- 55
2018-01-16 13:00:00 14.7 33 Oeste 60 Sudoeste 0 -- -- 57
2018-01-16 12:00:00 13.8 41 Oeste 59 Sudoeste 0 -- -- 61
2018-01-16 11:00:00 12.2 26 Oeste 58 Oeste 0 -- -- 62
2018-01-16 10:00:00 10.6 18 Oeste 48 Oeste 0 -- -- 62
2018-01-16 09:00:00 9.8 27 Oeste 46 Oeste 0 -- -- 62
2018-01-16 08:00:00 9.3 26 Oeste 42 Oeste 0 -- -- 63
2018-01-16 07:00:00 8.7 25 Oeste 38 Oeste 0 -- -- 63
2018-01-16 06:00:00 6.7 5 Sudoeste 16 Noroeste 0 -- -- 71
2018-01-16 05:00:00 6.6 5 Sur 9 Nordeste 0 -- -- 72
2018-01-16 04:00:00 6.4 4 Oeste 14 Oeste 0 -- -- 74
2018-01-16 03:00:00 6.3 8 Sur 18 Sudoeste 0 -- -- 75
2018-01-16 02:00:00 5.9 0 Calma 13 Noroeste 0 -- -- 77
2018-01-16 01:00:00 5.5 2 Noroeste 12 Sudoeste 0 -- -- 79
2018-01-16 00:00:00 4.7 0 Calma 9 Oeste 0 -- -- 88
2018-01-15 23:00:00 4.3 2 Norte 4 Norte 0 -- -- 92
2018-01-15 22:00:00 4.5 0 Calma 5 Noroeste 0 -- -- 90
2018-01-15 21:00:00 5.1 0 Calma 4 Sudoeste 0 -- -- 89
2018-01-15 20:00:00 6 3 Noroeste 5 Oeste 0 -- -- 85
2018-01-15 19:00:00 7 2 Sur 8 Sudeste 0 -- -- 81
2018-01-15 18:00:00 7.6 0 Calma 5 Sur 0 -- -- 80
2018-01-15 17:00:00 8.4 0 Calma 10 Noroeste 0 -- -- 77
2018-01-15 16:00:00 8.8 4 Noroeste 12 Noroeste 0 -- -- 74
2018-01-15 15:00:00 9 0 Calma 8 Noroeste 0 -- -- 74
2018-01-15 14:00:00 8.2 4 Oeste 13 Oeste 0 -- -- 75
2018-01-15 13:00:00 5.9 9 Noroeste 15 Noroeste 0 -- -- 82
2018-01-15 12:00:00 5.1 3 Noroeste 6 Noroeste 0 -- -- 90
2018-01-15 11:00:00 3.9 3 Sudoeste 8 Oeste 0 -- -- 90
2018-01-15 10:00:00 2.1 0 Calma 3 Nordeste 0 -- -- 97
2018-01-15 09:00:00 0.3 0 Calma 3 Sudoeste 0 -- -- 96
2018-01-15 08:00:00 0.4 0 Calma 3 Nordeste 0 -- -- 95
2018-01-15 07:00:00 1 0 Calma 2 Sur 0 -- -- 94
2018-01-15 06:00:00 1.4 0 Calma 7 Oeste 0 -- -- 95
2018-01-15 05:00:00 1.8 0 Calma 5 Sur 0 -- -- 95
2018-01-15 04:00:00 1.3 0 Calma 4 Sur 0 -- -- 94
2018-01-15 03:00:00 2.2 0 Calma 4 Sudoeste 0 -- -- 93
2018-01-15 02:00:00 3 0 Calma 4 Oeste 0 -- -- 90
2018-01-15 01:00:00 3.9 0 Calma 8 Oeste 0 -- -- 89
2018-01-15 00:00:00 4.8 5 Noroeste 13 Noroeste 0 -- -- 86
2018-01-14 23:00:00 5.4 5 Oeste 18 Oeste 0 -- -- 86
2018-01-14 22:00:00 6.2 2 Sur 12 Oeste 0 -- -- 84
2018-01-14 21:00:00 7 5 Sudoeste 19 Sudoeste 0 -- -- 82
2018-01-14 20:00:00 7.3 10 Sudoeste 14 Sudoeste 0 -- -- 80
2018-01-14 19:00:00 7.7 6 Sudoeste 15 Oeste 0 -- -- 77
2018-01-14 18:00:00 8.1 8 Oeste 23 Oeste 0 -- -- 73
2018-01-14 17:00:00 8.5 11 Noroeste 31 Oeste 0 -- -- 72
2018-01-14 16:00:00 8.9 19 Noroeste 32 Oeste 0 -- -- 70
2018-01-14 15:00:00 8.8 17 Noroeste 36 Noroeste 0 -- -- 71
2018-01-14 14:00:00 9 23 Noroeste 35 Oeste 0 -- -- 70
2018-01-14 13:00:00 8.6 22 Oeste 34 Oeste 0.2 -- -- 73
2018-01-14 12:00:00 8.4 15 Oeste 24 Oeste 0 -- -- 77
2018-01-14 11:00:00 7.8 13 Oeste 21 Oeste 0 -- -- 78
2018-01-14 10:00:00 6.3 7 Oeste 16 Oeste 0 -- -- 84
2018-01-14 09:00:00 5.2 5 Oeste 17 Oeste 0 -- -- 87
2018-01-14 08:00:00 5.1 10 Noroeste 17 Oeste 0 -- -- 88
2018-01-14 07:00:00 5.1 12 Oeste 19 Oeste 0 -- -- 90
2018-01-14 06:00:00 5 13 Oeste 19 Oeste 0 -- -- 90
2018-01-14 05:00:00 5.2 9 Oeste 21 Oeste 0 -- -- 90
2018-01-14 04:00:00 5.5 9 Oeste 17 Oeste 0 -- -- 93
2018-01-14 03:00:00 5.7 4 Noroeste 9 Noroeste 0 -- -- 95
2018-01-14 02:00:00 6.1 6 Noroeste 15 Oeste 0 -- -- 93
2018-01-14 01:00:00 6.3 10 Oeste 19 Sudoeste 0 -- -- 92
2018-01-14 00:00:00 5.8 5 Sudoeste 14 Sur 0.4 -- -- 93
2018-01-13 23:00:00 6 5 Sudeste 12 Sur 0.6 -- -- 90
2018-01-13 22:00:00 6.3 5 Sudoeste 11 Oeste 0 -- -- 83
2018-01-13 21:00:00 6.8 3 Sudeste 13 Este 0 -- -- 81
2018-01-13 20:00:00 7.4 9 Este 14 Nordeste 0 -- -- 81
2018-01-13 19:00:00 6.1 0 Calma 7 Oeste 0 -- -- 81
2018-01-13 18:00:00 6.8 5 Oeste 9 Oeste 0 -- -- 76
2018-01-13 17:00:00 8.6 0 Calma 12 Nordeste 0 -- -- 70
2018-01-13 16:00:00 7.1 8 Nordeste 12 Nordeste 0 -- -- 73
2018-01-13 15:00:00 6.9 5 Sudoeste 14 Este 0 -- -- 71
2018-01-13 14:00:00 7.1 6 Nordeste 13 Nordeste 0 -- -- 70
2018-01-13 13:00:00 5 2 Sudoeste 7 Nordeste 0 -- -- 83
2018-01-13 12:00:00 2.4 3 Noroeste 8 Noroeste 0 -- -- 97
2018-01-13 11:00:00 1 0 Calma 3 Noroeste 0 -- -- 98
2018-01-13 10:00:00 0 0 Calma 3 Noroeste 0 -- -- 98
2018-01-13 09:00:00 -1.3 2 Oeste 4 Oeste 0 -- -- 98
2018-01-13 08:00:00 -1.4 0 Calma 5 Oeste 0 -- -- 97
2018-01-13 07:00:00 -1.4 0 Calma 4 Sur 0 -- -- 97
2018-01-13 06:00:00 -1.1 0 Calma 3 Sudoeste 0 -- -- 96
2018-01-13 05:00:00 -1.2 0 Calma 4 Nordeste 0 -- -- 96
2018-01-13 04:00:00 0.2 0 Calma 4 Sudoeste 0 -- -- 95
2018-01-13 03:00:00 1 2 Sur 4 Sur 0 -- -- 95
2018-01-13 02:00:00 1.6 3 Sur 6 Sudoeste 0 -- -- 94
2018-01-13 01:00:00 1.9 0 Calma 5 Oeste 0 -- -- 93
2018-01-13 00:00:00 2.3 4 Oeste 6 Oeste 0 -- -- 89
2018-01-12 23:00:00 4.4 2 Sudeste 7 Sur 0 -- -- 85
2018-01-12 22:00:00 4.1 4 Sur 8 Sur 0 -- -- 87
2018-01-12 21:00:00 4.5 3 Sudoeste 6 Sur 0 -- -- 86
2018-01-12 20:00:00 6 5 Este 8 Este 0 -- -- 79
2018-01-12 19:00:00 7.5 0 Calma 9 Este 0 -- -- 77
2018-01-12 18:00:00 8 5 Este 8 Este 0 -- -- 75
2018-01-12 17:00:00 8.9 5 Este 8 Sudeste 0 -- -- 72
2018-01-12 16:00:00 10.2 0 Calma 7 Sudoeste 0 -- -- 69
2018-01-12 15:00:00 10.2 4 Sudoeste 8 Sudoeste 0 -- -- 69
2018-01-12 14:00:00 7.6 0 Calma 9 Oeste 0 -- -- 78
2018-01-12 13:00:00 5 6 Oeste 11 Noroeste 0 -- -- 87
2018-01-12 12:00:00 3.1 6 Oeste 8 Oeste 0 -- -- 94
2018-01-12 11:00:00 0.2 2 Norte 12 Oeste 0 -- -- 96
2018-01-12 10:00:00 0.4 5 Oeste 8 Oeste 0 -- -- 92
2018-01-12 09:00:00 1.4 2 Noroeste 7 Sur 0 -- -- 92
2018-01-12 08:00:00 2.1 0 Calma 14 Sudoeste 0 -- -- 91
2018-01-12 07:00:00 2.7 8 Sudoeste 15 Sudoeste 0 -- -- 90
2018-01-12 06:00:00 2.2 5 Sur 12 Sudoeste 0 -- -- 90
2018-01-12 05:00:00 2.2 0 Calma 15 Oeste 0 -- -- 88
2018-01-12 04:00:00 2.8 5 Oeste 19 Sudoeste 0 -- -- 87
2018-01-12 03:00:00 3 8 Sur 10 Sur 0 -- -- 88
2018-01-12 02:00:00 4 5 Oeste 26 Oeste 0 -- -- 83
2018-01-12 01:00:00 4.8 10 Oeste 21 Oeste 0 -- -- 80
2018-01-12 00:00:00 5.3 11 Oeste 20 Oeste 0 -- -- 78
2018-01-11 23:00:00 5.9 10 Oeste 22 Oeste 0 -- -- 76
2018-01-11 22:00:00 6.6 13 Oeste 46 Oeste 0 -- -- 73
2018-01-11 21:00:00 7.2 32 Noroeste 49 Oeste 0 -- -- 71
2018-01-11 20:00:00 7.3 26 Noroeste 49 Oeste 0 -- -- 68
2018-01-11 19:00:00 7.8 26 Noroeste 44 Noroeste 0 -- -- 66
2018-01-11 18:00:00 8.3 26 Noroeste 46 Noroeste 0 -- -- 65
2018-01-11 17:00:00 9.7 25 Noroeste 59 Oeste 0 -- -- 58
2018-01-11 16:00:00 11 28 Noroeste 57 Noroeste 0 -- -- 54
2018-01-11 15:00:00 10.9 36 Noroeste 55 Oeste 0 -- -- 53
2018-01-11 14:00:00 10.8 30 Noroeste 53 Noroeste 0 -- -- 54
2018-01-11 13:00:00 10.2 33 Oeste 62 Oeste 0 -- -- 54
2018-01-11 12:00:00 9.6 36 Noroeste 58 Noroeste 0 -- -- 57
2018-01-11 11:00:00 9.2 33 Oeste 53 Oeste 0 -- -- 59
2018-01-11 10:00:00 7.8 25 Oeste 46 Oeste 0 -- -- 64
2018-01-11 09:00:00 6.5 21 Oeste 37 Oeste 0 -- -- 66
2018-01-11 08:00:00 6.3 16 Oeste 28 Oeste 0 -- -- 66
2018-01-11 07:00:00 6.4 17 Oeste 45 Oeste 0 -- -- 65
2018-01-11 06:00:00 6.9 34 Oeste 50 Oeste 0 -- -- 63
2018-01-11 05:00:00 6.6 27 Oeste 49 Oeste 0 -- -- 67
2018-01-11 04:00:00 6.4 29 Oeste 47 Oeste 0 -- -- 72
2018-01-11 03:00:00 7 19 Oeste 39 Oeste 0 -- -- 68
2018-01-11 02:00:00 7.4 26 Oeste 44 Oeste 0 -- -- 70
2018-01-11 01:00:00 8.3 26 Noroeste 43 Noroeste 0 -- -- 65
2018-01-11 00:00:00 8.3 19 Oeste 33 Oeste 0 -- -- 73
2018-01-10 23:00:00 8.4 8 Noroeste 18 Noroeste 0 -- -- 75
2018-01-10 22:00:00 7.7 0 Calma 5 Nordeste 0 -- -- 82
2018-01-10 21:00:00 8.2 5 Sur 6 Sur 0 -- -- 81
2018-01-10 20:00:00 7.8 0 Calma 7 Sur 0 -- -- 83
2018-01-10 19:00:00 7.8 0 Calma 12 Sudeste 0 -- -- 82
2018-01-10 18:00:00 8.3 3 Este 9 Sur 0 -- -- 81
2018-01-10 17:00:00 9.5 4 Este 9 Sudoeste 0 -- -- 79
2018-01-10 16:00:00 10.2 4 Sudoeste 10 Sudoeste 0 -- -- 76
2018-01-10 15:00:00 9.2 0 Calma 10 Sudoeste 0 -- -- 81
2018-01-10 14:00:00 6.9 4 Sur 6 Sudoeste 0 -- -- 99
2018-01-10 13:00:00 3.4 3 Oeste 5 Oeste 0 -- -- 99
2018-01-10 12:00:00 2.5 2 Sur 4 Sur 0 -- -- 99
2018-01-10 11:00:00 1.4 0 Calma 3 Sudeste 0 -- -- 99
2018-01-10 10:00:00 0 0 Calma 4 Sur 0 -- -- 99
2018-01-10 09:00:00 -0.4 0 Calma 5 Sur 0.2 -- -- 99
2018-01-10 08:00:00 -0.2 0 Calma 4 Nordeste 0 -- -- 98
2018-01-10 07:00:00 -0.2 0 Calma 4 Sudoeste 0 -- -- 98
2018-01-10 06:00:00 1 0 Calma -- -- 0 -- -- 98
2018-01-10 05:00:00 1.7 0 Calma -- -- 0 -- -- 98
2018-01-10 04:00:00 1.8 0 Calma -- -- 0 -- -- 98
2018-01-10 03:00:00 2.1 0 Calma 3 Sur 0 -- -- 98
2018-01-10 02:00:00 2.3 0 Calma 3 Sur 0 -- -- 98
2018-01-10 01:00:00 2.2 0 Calma 4 Nordeste 0 -- -- 98
2018-01-10 00:00:00 2.2 0 Calma 6 Sur 0 -- -- 98
2018-01-09 23:00:00 2.4 0 Calma 8 Norte 0 -- -- 98
2018-01-09 22:00:00 2 5 Norte 10 Noroeste 0 -- -- 98
2018-01-09 21:00:00 1.3 3 Noroeste 9 Noroeste 0 -- -- 97
2018-01-09 20:00:00 1.9 3 Noroeste 9 Norte 0 -- -- 96
2018-01-09 19:00:00 2.3 5 Noroeste 9 Norte 0 -- -- 96
2018-01-09 18:00:00 2.7 5 Noroeste 6 Noroeste 0 -- -- 95
2018-01-09 17:00:00 3.4 0 Calma 8 Oeste 0 -- -- 97
2018-01-09 16:00:00 3.4 5 Oeste 8 Noroeste 0 -- -- 98
2018-01-09 15:00:00 3.3 2 Oeste 7 Noroeste 0 -- -- 99
2018-01-09 14:00:00 2.6 2 Este 6 Norte 0 -- -- 99
2018-01-09 13:00:00 1.5 3 Oeste 6 Oeste 0 -- -- 99
2018-01-09 12:00:00 0.5 0 Calma 3 Sudoeste 0 -- -- 99
2018-01-09 11:00:00 -0.3 0 Calma 4 Noroeste 0.2 -- -- 99
2018-01-09 10:00:00 -0.9 0 Calma 3 Oeste 0 -- -- 99
2018-01-09 09:00:00 -1.3 0 Calma 3 Oeste 0 -- -- 99
2018-01-09 08:00:00 -1.8 0 Calma 8 Noroeste 0 -- -- 98
2018-01-09 07:00:00 -1.9 3 Noroeste 6 Noroeste 0 -- -- 98
2018-01-09 06:00:00 -1.5 0 Calma 3 Noroeste 0 -- -- 98
2018-01-09 05:00:00 -1.3 0 Calma 3 Nordeste 0 -- -- 97
2018-01-09 04:00:00 -1.1 0 Calma 3 Sur 0 -- -- 97
2018-01-09 03:00:00 -0.8 0 Calma 4 Sur 0 -- -- 95
2018-01-09 02:00:00 1.1 0 Calma 7 Sudoeste 0 -- -- 94
2018-01-09 01:00:00 2.6 4 Sudoeste 6 Sudoeste 0 -- -- 95
2018-01-09 00:00:00 2.2 4 Sur 8 Sur 0 -- -- 95
2018-01-08 23:00:00 2.8 0 Calma 6 Sur 0 -- -- 94
2018-01-08 22:00:00 3.2 5 Sur 6 Sur 0 -- -- 92
2018-01-08 21:00:00 3.8 4 Sur 6 Sur 0 -- -- 90
2018-01-08 20:00:00 4.5 3 Sur 5 Sur 0 -- -- 89
2018-01-08 19:00:00 4.3 0 Calma 18 Sudoeste 0 -- -- 89
2018-01-08 18:00:00 4.9 11 Sudoeste 19 Sudoeste 0 -- -- 89
2018-01-08 17:00:00 5.9 7 Oeste 26 Oeste 0 -- -- 88
2018-01-08 16:00:00 6.7 12 Oeste 17 Oeste 0 -- -- 87
2018-01-08 15:00:00 6.3 7 Noroeste 18 Oeste 0 -- -- 88
2018-01-08 14:00:00 6 7 Noroeste 13 Noroeste 0 -- -- 91
2018-01-08 13:00:00 5.9 5 Noroeste 9 Noroeste 0 -- -- 92
2018-01-08 12:00:00 5.6 4 Noroeste 8 Oeste 0 -- -- 93
2018-01-08 11:00:00 5 3 Noroeste 8 Oeste 0 -- -- 94
2018-01-08 10:00:00 4.6 0 Calma 7 Sur 0 -- -- 94
2018-01-08 09:00:00 4.3 5 Sur 8 Sudoeste 0 -- -- 95
2018-01-08 08:00:00 4.2 0 Calma 4 Oeste 0 -- -- 96
2018-01-08 07:00:00 4.1 2 Oeste 12 Noroeste 0 -- -- 96
2018-01-08 06:00:00 4.3 8 Noroeste 10 Noroeste 0 -- -- 96
2018-01-08 05:00:00 4.5 4 Norte 6 Noroeste 0 -- -- 96
2018-01-08 04:00:00 4.7 3 Sudeste 10 Sur 0 -- -- 95
2018-01-08 03:00:00 4.6 7 Sur 11 Sur 0 -- -- 96
2018-01-08 02:00:00 4.4 6 Sur 8 Sur 0 -- -- 96
2018-01-08 01:00:00 4.7 0 Calma 5 Norte 0 -- -- 95
2018-01-08 00:00:00 5.2 0 Calma 5 Oeste 0 -- -- 95
2018-01-07 23:00:00 5.4 0 Calma 8 Oeste 0 -- -- 95
2018-01-07 22:00:00 5.5 4 Sudoeste 8 Sudoeste 0 -- -- 95
2018-01-07 21:00:00 6 3 Noroeste 8 Sudoeste 0 -- -- 93
2018-01-07 20:00:00 7.1 2 Norte 10 Este 0 -- -- 91
2018-01-07 19:00:00 7.7 4 Sudeste 12 Este 0 -- -- 92
2018-01-07 18:00:00 7.8 2 Norte 7 Nordeste 0 -- -- 92
2018-01-07 17:00:00 8.3 0 Calma 5 Noroeste 0 -- -- 91
2018-01-07 16:00:00 8.4 4 Norte 8 Noroeste 0 -- -- 91
2018-01-07 15:00:00 8.4 4 Noroeste 10 Oeste 0 -- -- 91
2018-01-07 14:00:00 8.4 7 Nordeste 10 Nordeste 0 -- -- 91
2018-01-07 13:00:00 7.4 2 Norte 6 Noroeste 0 -- -- 92
2018-01-07 12:00:00 6.3 0 Calma 10 Sur 0 -- -- 93
2018-01-07 11:00:00 5.2 4 Este 17 Sur 0 -- -- 93
2018-01-07 10:00:00 4.9 5 Sudeste 11 Sudeste 0 -- -- 96
2018-01-07 09:00:00 4.1 4 Sudeste 13 Sur 0.8 -- -- 96
2018-01-07 08:00:00 4 0 Calma 16 Sudeste 0.2 -- -- 96
2018-01-07 07:00:00 4.1 6 Sur 15 Sur 0.6 -- -- 96
2018-01-07 06:00:00 4.4 9 Sur 14 Sur 0.2 -- -- 96
2018-01-07 05:00:00 4.8 0 Calma 8 Sudoeste 0.6 -- -- 96
2018-01-07 04:00:00 5.1 2 Sudeste 10 Sur 1.6 -- -- 96
2018-01-07 03:00:00 5.2 3 Sudoeste 12 Sudoeste 1 -- -- 96
2018-01-07 02:00:00 5.1 5 Nordeste 21 Sur 2.6 -- -- 95
2018-01-07 01:00:00 5.3 2 Norte 13 Este 0.4 -- -- 94
2018-01-07 00:00:00 5.4 5 Sur 22 Sur 0.2 -- -- 92
2018-01-06 23:00:00 6.8 20 Sudoeste 35 Sudoeste 8.6 -- -- 92
2018-01-06 22:00:00 9 9 Sur 48 Sur 5.6 -- -- 88
2018-01-06 21:00:00 12.5 36 Nordeste 58 Este 0 -- -- 73
2018-01-06 20:00:00 12.6 35 Nordeste 50 Este 0 -- -- 71
2018-01-06 19:00:00 12.7 27 Nordeste 40 Este 0 -- -- 71
2018-01-06 18:00:00 12.3 24 Nordeste 38 Nordeste 0.2 -- -- 75
2018-01-06 17:00:00 12.7 26 Nordeste 39 Nordeste 0 -- -- 74
2018-01-06 16:00:00 10.1 2 Sudeste 6 Sur 0 -- -- 75
2018-01-06 15:00:00 10.4 2 Nordeste 6 Norte 0 -- -- 75
2018-01-06 14:00:00 8.7 2 Sur 4 Nordeste 0 -- -- 78
2018-01-06 13:00:00 7.9 0 Calma 10 Sur 0 -- -- 78
2018-01-06 12:00:00 7.3 4 Sur 10 Sur 0 -- -- 79
2018-01-06 11:00:00 6.6 0 Calma 10 Sudoeste 0 -- -- 82
2018-01-06 10:00:00 5.4 4 Sur 10 Sudoeste 0 -- -- 82
2018-01-06 09:00:00 4.9 4 Sur 12 Sudeste 0 -- -- 83
2018-01-06 08:00:00 4.6 0 Calma 14 Este 0 -- -- 84
2018-01-06 07:00:00 5.5 3 Sudoeste 17 Este 0 -- -- 83
2018-01-06 06:00:00 5 5 Sudoeste 18 Nordeste 0 -- -- 85
2018-01-06 05:00:00 5.9 4 Sudeste 9 Sudeste 0 -- -- 83
2018-01-06 04:00:00 6.3 3 Sudeste 5 Sur 0 -- -- 81
2018-01-06 03:00:00 6.7 3 Sur 4 Sudoeste 0 -- -- 78
2018-01-06 02:00:00 7.7 0 Calma 6 Sur 0 -- -- 75
2018-01-06 01:00:00 8.4 7 Sur 8 Sur 0 -- -- 72
2018-01-06 00:00:00 10 3 Este 12 Este 0 -- -- 66
2018-01-05 23:00:00 10.6 3 Nordeste 5 Nordeste 0 -- -- 63
2018-01-05 22:00:00 12.4 3 Oeste 9 Sudeste 0 -- -- 58
2018-01-05 21:00:00 13.6 5 Sudeste 10 Sudeste 0 -- -- 54
2018-01-05 20:00:00 13.9 4 Sur 10 Sudoeste 0 -- -- 53
2018-01-05 19:00:00 14.9 7 Este 14 Nordeste 0 -- -- 50
2018-01-05 18:00:00 15.4 6 Este 20 Oeste 0 -- -- 47
2018-01-05 17:00:00 18 14 Oeste 26 Oeste 0 -- -- 40
2018-01-05 16:00:00 18.4 16 Oeste 29 Oeste 0 -- -- 39
2018-01-05 15:00:00 17.7 16 Noroeste 31 Oeste 0 -- -- 43
2018-01-05 14:00:00 17.3 19 Oeste 35 Oeste 0 -- -- 43
2018-01-05 13:00:00 17.1 23 Oeste 40 Oeste 0 -- -- 45
2018-01-05 12:00:00 15.9 19 Oeste 32 Oeste 0 -- -- 52
2018-01-05 11:00:00 12.6 7 Oeste 12 Sudoeste 0 -- -- 63
2018-01-05 10:00:00 9 2 Oeste 10 Oeste 0 -- -- 77
2018-01-05 09:00:00 6.6 3 Noroeste 8 Sur 0 -- -- 81
2018-01-05 08:00:00 9.1 2 Oeste 14 Oeste 0 -- -- 74
2018-01-05 07:00:00 9.9 4 Sudoeste 14 Sudoeste 0 -- -- 71
2018-01-05 06:00:00 10 0 Calma 9 Oeste 0 -- -- 72
2018-01-05 05:00:00 10 3 Oeste 7 Oeste 0 -- -- 71
2018-01-05 04:00:00 11 3 Sudeste 10 Oeste 0 -- -- 68
2018-01-05 03:00:00 12.1 8 Oeste 21 Noroeste 0 -- -- 64
2018-01-05 02:00:00 12.2 10 Noroeste 15 Noroeste 0 -- -- 63
2018-01-05 01:00:00 13.1 3 Oeste 25 Oeste 0 -- -- 59
2018-01-05 00:00:00 14.5 21 Oeste 35 Oeste 0 -- -- 55
2018-01-04 23:00:00 15.1 22 Oeste 40 Oeste 0 -- -- 53
2018-01-04 22:00:00 15.1 29 Oeste 49 Oeste 0 -- -- 53
2018-01-04 21:00:00 15.8 32 Oeste 49 Oeste 0 -- -- 51
2018-01-04 20:00:00 15.7 9 Sudoeste 40 Oeste 0 -- -- 52
2018-01-04 19:00:00 17 22 Oeste 34 Oeste 0 -- -- 50
2018-01-04 18:00:00 18.1 20 Oeste 39 Oeste 0 -- -- 47
2018-01-04 17:00:00 19.5 24 Oeste 41 Oeste 0 -- -- 47
2018-01-04 16:00:00 20.2 26 Oeste 45 Oeste 0 -- -- 46
2018-01-04 15:00:00 20 22 Oeste 39 Oeste 0 -- -- 49
2018-01-04 14:00:00 19.7 24 Noroeste 43 Oeste 0 -- -- 51
2018-01-04 13:00:00 19.3 26 Oeste 48 Oeste 0 -- -- 53
2018-01-04 12:00:00 18.6 27 Oeste 42 Oeste 0 -- -- 58
2018-01-04 11:00:00 16.9 23 Oeste 40 Oeste 0 -- -- 64
2018-01-04 10:00:00 15.8 30 Oeste 44 Oeste 0 -- -- 67
2018-01-04 09:00:00 15.2 30 Oeste 42 Oeste 0 -- -- 69
2018-01-04 08:00:00 15.9 28 Oeste 47 Oeste 0 -- -- 66
2018-01-04 07:00:00 15.4 33 Oeste 53 Oeste 0 -- -- 69
2018-01-04 06:00:00 16 36 Oeste 57 Oeste 0 -- -- 68
2018-01-04 05:00:00 16.2 42 Oeste 63 Oeste 0 -- -- 67
2018-01-04 04:00:00 16.9 46 Oeste 71 Oeste 0 -- -- 66
2018-01-04 03:00:00 16.8 51 Oeste 76 Oeste 0 -- -- 66
2018-01-04 02:00:00 16.9 36 Oeste 61 Oeste 0 -- -- 66
2018-01-04 01:00:00 16.7 37 Oeste 58 Oeste 0 -- -- 67
2018-01-04 00:00:00 16.6 31 Oeste 55 Oeste 0 -- -- 67
2018-01-03 23:00:00 16.5 28 Oeste 44 Oeste 0 -- -- 69
2018-01-03 22:00:00 16.6 28 Oeste 45 Oeste 0 -- -- 69
2018-01-03 21:00:00 17 24 Oeste 47 Oeste 0 -- -- 67
2018-01-03 20:00:00 17.8 31 Oeste 54 Oeste 0 -- -- 64
2018-01-03 19:00:00 18.1 30 Oeste 47 Oeste 0 -- -- 63
2018-01-03 18:00:00 18.6 30 Oeste 48 Oeste 0 -- -- 60
2018-01-03 17:00:00 19.8 30 Oeste 51 Oeste 0 -- -- 55
2018-01-03 16:00:00 20.8 38 Oeste 60 Oeste 0 -- -- 51
2018-01-03 15:00:00 20.8 38 Oeste 56 Oeste 0 -- -- 51
2018-01-03 14:00:00 20.7 40 Oeste 60 Oeste 0 -- -- 52
2018-01-03 13:00:00 20.2 33 Oeste 57 Oeste 0 -- -- 56
2018-01-03 12:00:00 18.3 25 Oeste 39 Oeste 0 -- -- 60
2018-01-03 11:00:00 16.4 16 Oeste 48 Oeste 0 -- -- 66
2018-01-03 10:00:00 14.9 33 Oeste 46 Oeste 0 -- -- 70
2018-01-03 09:00:00 14 31 Oeste 47 Oeste 0 -- -- 71
2018-01-03 08:00:00 13.9 13 Oeste 38 Oeste 0 -- -- 71
2018-01-03 07:00:00 14.1 19 Oeste 40 Oeste 0 -- -- 70
2018-01-03 06:00:00 13.7 24 Oeste 38 Oeste 0 -- -- 71
2018-01-03 05:00:00 13 17 Sudoeste 39 Oeste 0 -- -- 71
2018-01-03 04:00:00 14.3 33 Oeste 49 Oeste 0 -- -- 68
2018-01-03 03:00:00 14.6 36 Oeste 64 Oeste 0 -- -- 67
2018-01-03 02:00:00 15 35 Oeste 55 Oeste 0 -- -- 65
2018-01-03 01:00:00 14.8 32 Oeste 55 Oeste 0 -- -- 65
2018-01-03 00:00:00 14.5 32 Oeste 48 Oeste 0 -- -- 70
2018-01-02 23:00:00 13.8 21 Oeste 44 Oeste 0 -- -- 72
2018-01-02 22:00:00 14.5 23 Oeste 60 Oeste 0 -- -- 68
2018-01-02 21:00:00 15.4 27 Oeste 49 Oeste 0 -- -- 64
2018-01-02 20:00:00 15.2 34 Oeste 53 Oeste 0 -- -- 62
2018-01-02 19:00:00 14.9 19 Oeste 43 Oeste 0 -- -- 62
2018-01-02 18:00:00 15.2 27 Oeste 46 Oeste 0 -- -- 62
2018-01-02 17:00:00 16.6 30 Oeste 51 Oeste 0 -- -- 55
2018-01-02 16:00:00 18 30 Oeste 51 Sudoeste 0 -- -- 50
2018-01-02 15:00:00 18 23 Oeste 49 Oeste 0 -- -- 49
2018-01-02 14:00:00 16.8 31 Oeste 50 Oeste 0 -- -- 52
2018-01-02 13:00:00 15.4 31 Oeste 50 Oeste 0 -- -- 56
2018-01-02 12:00:00 13.5 31 Oeste 42 Oeste 0 -- -- 66
2018-01-02 11:00:00 12.7 21 Oeste 39 Oeste 0 -- -- 68
2018-01-02 10:00:00 11.6 25 Oeste 50 Oeste 0 -- -- 72
2018-01-02 09:00:00 11 30 Oeste 48 Oeste 0 -- -- 74
2018-01-02 08:00:00 10.8 32 Oeste 45 Oeste 0 -- -- 77
2018-01-02 07:00:00 11.3 30 Oeste 41 Oeste 0 -- -- 72
2018-01-02 06:00:00 11.2 24 Oeste 40 Oeste 0 -- -- 72
2018-01-02 05:00:00 11.1 27 Oeste 47 Oeste 0 -- -- 68
2018-01-02 04:00:00 11.8 22 Oeste 44 Oeste 0 -- -- 62
2018-01-02 03:00:00 12.5 28 Oeste 53 Oeste 0 -- -- 57
2018-01-02 02:00:00 12.9 38 Oeste 57 Oeste 0 -- -- 54
2018-01-02 01:00:00 12.9 26 Noroeste 45 Noroeste 0 -- -- 59
2018-01-02 00:00:00 12.7 20 Oeste 41 Oeste 0 -- -- 65
2018-01-01 23:00:00 12.9 26 Oeste 46 Oeste 0 -- -- 70
2018-01-01 22:00:00 13.2 28 Oeste 46 Oeste 0 -- -- 63
2018-01-01 21:00:00 13.2 30 Oeste 53 Oeste 0 -- -- 60
2018-01-01 20:00:00 13.3 27 Oeste 49 Oeste 0 -- -- 58
2018-01-01 19:00:00 13.9 31 Oeste 51 Oeste 0 -- -- 51
2018-01-01 18:00:00 14.3 25 Oeste 46 Oeste 0 -- -- 48
2018-01-01 17:00:00 15 18 Oeste 44 Oeste 0 -- -- 43
2018-01-01 16:00:00 14.9 23 Oeste 44 Oeste 0 -- -- 42
2018-01-01 15:00:00 14.5 35 Oeste 48 Oeste 0 -- -- 41
2018-01-01 14:00:00 14.2 23 Oeste 40 Oeste 0 -- -- 42
2018-01-01 13:00:00 13.3 25 Oeste 38 Oeste 0 -- -- 44
2018-01-01 12:00:00 12.1 16 Oeste 32 Oeste 0 -- -- 51
2018-01-01 11:00:00 10.1 24 Oeste 36 Oeste 0 -- -- 57
2018-01-01 10:00:00 7.7 12 Oeste 20 Oeste 0 -- -- 61
2018-01-01 09:00:00 6.2 21 Sudoeste 34 Sudoeste 0 -- -- 67
2018-01-01 08:00:00 7.2 17 Oeste 55 Oeste 0 -- -- 63
2018-01-01 07:00:00 8.2 32 Oeste 58 Oeste 0 -- -- 57
2018-01-01 06:00:00 8.5 33 Oeste 51 Oeste 0 -- -- 56
2018-01-01 05:00:00 8.7 27 Oeste 45 Oeste 0 -- -- 55
2018-01-01 04:00:00 8.7 23 Oeste 35 Oeste 0 -- -- 57
2018-01-01 03:00:00 9.7 27 Oeste 53 Noroeste 0 -- -- 55
2018-01-01 02:00:00 8.8 22 Oeste 45 Oeste 0 -- -- 60
2018-01-01 01:00:00 9.6 33 Oeste 61 Oeste 0 -- -- 60
2018-01-01 00:00:00 10.1 32 Oeste 62 Oeste 0 -- -- 57
2017-12-31 23:00:00 9.9 27 Oeste 57 Noroeste 0 -- -- 66
2017-12-31 22:00:00 9.6 27 Noroeste 52 Oeste 0 -- -- 77
2017-12-31 21:00:00 8.7 3 Este 9 Nordeste 0 -- -- 83
2017-12-31 20:00:00 9 2 Norte 6 Sudoeste 0 -- -- 82
2017-12-31 19:00:00 9.3 0 Calma 15 Sur 0 -- -- 80
2017-12-31 18:00:00 9.5 4 Sudeste 11 Sur 0 -- -- 80
2017-12-31 17:00:00 10.1 0 Calma 5 Sur 0 -- -- 79
2017-12-31 16:00:00 10.1 3 Sudoeste 6 Sur 0 -- -- 78
2017-12-31 15:00:00 10.9 0 Calma 4 Este 0 -- -- 74
2017-12-31 14:00:00 10.3 0 Calma 5 Oeste 0 -- -- 76
2017-12-31 13:00:00 8.6 2 Sudoeste 6 Sudoeste 0 -- -- 81
2017-12-31 12:00:00 7 2 Sur 7 Oeste 0 -- -- 87
2017-12-31 11:00:00 6.2 2 Sur 5 Sudoeste 0 -- -- 92
2017-12-31 10:00:00 3.5 2 Noroeste 7 Noroeste 0 -- -- 97
2017-12-31 09:00:00 3.1 0 Calma 4 Oeste 0 -- -- 97
2017-12-31 08:00:00 3.6 0 Calma 5 Nordeste 0 -- -- 95
2017-12-31 07:00:00 3.8 3 Nordeste 5 Nordeste 0 -- -- 94
2017-12-31 06:00:00 4.8 0 Calma 4 Oeste 0 -- -- 94
2017-12-31 05:00:00 5 0 Calma 6 Sur 0 -- -- 92
2017-12-31 04:00:00 5.7 6 Noroeste 9 Noroeste 0 -- -- 89
2017-12-31 03:00:00 7.7 0 Calma 3 Norte 0 -- -- 83
2017-12-31 02:00:00 8.9 0 Calma 4 Oeste 0 -- -- 83
2017-12-31 01:00:00 9.3 0 Calma 7 Sudoeste 0 -- -- 81